Time;durP1;ratioP1;P1;durP2;ratioP2;P2;SDS_P1;SDS_P2;PMS_P1;PMS_P2;Temp;Humidity;BMP_temperature;BMP_pressure;BME280_temperature;BME280_humidity;BME280_pressure;Samples;Min_cycle;Max_cycle;Signal;HPM_P1;HPM_P2
2020/12/18 00:00:57;;;;;;;18.77;9.03;;;4.90;99.90;;;;;;5003165;28;20574;-70
2020/12/18 00:03:24;;;;;;;16.23;8.57;;;4.90;99.90;;;;;;5007121;28;20288;-70
2020/12/18 00:05:52;;;;;;;17.87;9.07;;;4.90;99.90;;;;;;5025315;28;20259;-71
2020/12/18 00:08:18;;;;;;;21.97;10.00;;;5.00;99.90;;;;;;5027776;28;20286;-71
2020/12/18 00:10:46;;;;;;;17.43;8.87;;;4.90;99.90;;;;;;5028026;28;20206;-71
2020/12/18 00:13:12;;;;;;;18.47;9.40;;;5.00;99.90;;;;;;5028183;28;20226;-71
2020/12/18 00:15:39;;;;;;;19.10;9.27;;;5.00;99.90;;;;;;4983827;28;640569;-71
2020/12/18 00:18:06;;;;;;;22.70;9.70;;;5.00;99.90;;;;;;5036807;28;20229;-71
2020/12/18 00:20:32;;;;;;;17.70;8.77;;;5.00;99.90;;;;;;5067151;28;20229;-71
2020/12/18 00:22:59;;;;;;;19.37;9.20;;;5.00;99.90;;;;;;5067829;28;20703;-71
2020/12/18 00:25:25;;;;;;;18.30;9.27;;;5.00;99.90;;;;;;5048444;28;20625;-71
2020/12/18 00:27:53;;;;;;;18.90;9.20;;;5.00;99.90;;;;;;5048899;28;20302;-71
2020/12/18 00:30:19;;;;;;;20.13;9.10;;;5.00;99.90;;;;;;5042168;28;20685;-71
2020/12/18 00:32:46;;;;;;;22.33;10.17;;;5.00;99.90;;;;;;5047854;28;20516;-71
2020/12/18 00:35:13;;;;;;;20.00;9.30;;;5.00;99.90;;;;;;5048208;28;20202;-71
2020/12/18 00:37:39;;;;;;;18.57;9.10;;;5.00;99.90;;;;;;5048299;28;20401;-71
2020/12/18 00:40:07;;;;;;;16.13;8.07;;;5.00;99.90;;;;;;5049912;28;20212;-71
2020/12/18 00:42:34;;;;;;;15.67;7.83;;;5.00;99.90;;;;;;5051119;28;20316;-71
2020/12/18 00:45:01;;;;;;;19.93;9.60;;;5.00;99.90;;;;;;5043051;28;20288;-71
2020/12/18 00:47:28;;;;;;;20.00;9.27;;;5.00;99.90;;;;;;5026676;28;20607;-70
2020/12/18 00:49:55;;;;;;;24.33;10.73;;;5.00;99.90;;;;;;5024266;28;20278;-70
2020/12/18 00:52:25;;;;;;;20.50;9.60;;;5.00;99.90;;;;;;5027822;28;20200;-71
2020/12/18 00:54:52;;;;;;;21.83;10.07;;;5.00;99.90;;;;;;5031572;28;20198;-71
2020/12/18 00:57:24;;;;;;;20.97;9.17;;;5.00;99.90;;;;;;5047706;28;20195;-71
2020/12/18 00:59:51;;;;;;;19.27;9.13;;;5.00;99.90;;;;;;5058717;28;20345;-71
2020/12/18 01:02:38;;;;;;;21.17;10.57;;;5.00;99.90;;;;;;5059589;28;20221;-71
2020/12/18 01:05:05;;;;;;;19.33;9.47;;;5.00;99.90;;;;;;5013411;28;20750;-70
2020/12/18 01:07:32;;;;;;;19.00;9.87;;;5.00;99.90;;;;;;5007011;28;20258;-71
2020/12/18 01:09:58;;;;;;;20.37;9.73;;;5.00;99.90;;;;;;4967416;28;20289;-71
2020/12/18 01:12:25;;;;;;;18.10;9.47;;;5.00;99.90;;;;;;4948920;29;20205;-71
2020/12/18 01:14:52;;;;;;;19.70;9.70;;;5.00;99.90;;;;;;4946614;29;20274;-71
2020/12/18 01:17:21;;;;;;;25.17;10.87;;;5.00;99.90;;;;;;4941279;29;20301;-71
2020/12/18 01:19:53;;;;;;;19.37;9.23;;;5.00;99.90;;;;;;4929144;29;20276;-72
2020/12/18 01:22:20;;;;;;;26.10;10.67;;;5.00;99.90;;;;;;4946330;29;20246;-72
2020/12/18 01:24:48;;;;;;;22.37;10.30;;;5.00;99.90;;;;;;4946771;29;20234;-71
2020/12/18 01:27:15;;;;;;;24.47;10.53;;;5.00;99.90;;;;;;4939131;28;20318;-72
2020/12/18 01:29:42;;;;;;;19.53;9.27;;;5.00;99.90;;;;;;4910052;29;20206;-71
2020/12/18 01:32:11;;;;;;;18.60;8.70;;;5.00;99.90;;;;;;4971238;28;20303;-71
2020/12/18 01:34:43;;;;;;;16.37;8.97;;;5.00;99.90;;;;;;4958765;28;20232;-71
2020/12/18 01:37:12;;;;;;;20.60;10.00;;;5.00;99.90;;;;;;4980130;28;20299;-72
2020/12/18 01:39:49;;;;;;;20.40;10.30;;;5.00;99.90;;;;;;4968532;28;20206;-72
2020/12/18 01:42:19;;;;;;;19.00;9.40;;;5.00;99.90;;;;;;4913692;29;20326;-71
2020/12/18 01:44:46;;;;;;;23.63;10.80;;;4.90;99.90;;;;;;4914452;29;20218;-71
2020/12/18 01:47:24;;;;;;;22.50;11.03;;;4.90;99.90;;;;;;4909900;29;20583;-71
2020/12/18 01:49:52;;;;;;;21.47;10.20;;;4.90;99.90;;;;;;4900948;29;20253;-71
2020/12/18 01:52:20;;;;;;;25.53;10.83;;;4.80;99.90;;;;;;4910292;29;20215;-72
2020/12/18 01:55:01;;;;;;;20.73;9.43;;;4.80;99.90;;;;;;4912427;29;20210;-71
2020/12/18 01:57:30;;;;;;;24.17;10.67;;;4.80;99.90;;;;;;4911222;29;20208;-71
2020/12/18 02:00:02;;;;;;;19.07;9.47;;;4.80;99.90;;;;;;4927680;29;20475;-71
2020/12/18 02:02:41;;;;;;;18.37;9.93;;;4.80;99.90;;;;;;4943796;29;20202;-71
2020/12/18 02:05:29;;;;;;;19.07;9.67;;;4.80;99.90;;;;;;4913695;29;20294;-71
2020/12/18 02:08:04;;;;;;;21.47;10.20;;;4.90;99.90;;;;;;4929618;29;20333;-71
2020/12/18 02:11:06;;;;;;;21.43;10.70;;;4.90;99.90;;;;;;4910613;29;20215;-71
2020/12/18 02:13:35;;;;;;;19.77;9.97;;;4.90;99.90;;;;;;4908973;29;20215;-70
2020/12/18 02:16:02;;;;;;;22.17;9.73;;;4.80;99.90;;;;;;4911052;29;20247;-70
2020/12/18 02:18:36;;;;;;;17.50;8.70;;;4.90;99.90;;;;;;4910197;29;20247;-70
2020/12/18 02:21:04;;;;;;;20.40;9.73;;;4.90;99.90;;;;;;4930696;29;20776;-70
2020/12/18 02:23:39;;;;;;;17.57;8.73;;;4.90;99.90;;;;;;4956704;28;20360;-71
2020/12/18 02:26:08;;;;;;;17.47;9.93;;;4.90;99.90;;;;;;4963516;28;20232;-71
2020/12/18 02:28:38;;;;;;;22.10;10.70;;;4.90;99.90;;;;;;4965807;28;20209;-70
2020/12/18 02:31:06;;;;;;;21.47;10.50;;;4.90;99.90;;;;;;4934537;29;20210;-71
2020/12/18 02:33:41;;;;;;;16.60;8.53;;;4.90;99.90;;;;;;4904959;29;20215;-71
2020/12/18 02:36:13;;;;;;;22.20;9.23;;;4.90;99.90;;;;;;4910479;29;20369;-71
2020/12/18 02:38:43;;;;;;;18.53;9.00;;;5.00;99.90;;;;;;4908981;29;20586;-70
2020/12/18 02:41:11;;;;;;;22.57;8.70;;;5.00;99.90;;;;;;4929430;29;20301;-71
2020/12/18 02:43:57;;;;;;;17.60;8.27;;;5.00;99.90;;;;;;4906691;29;20215;-71
2020/12/18 02:46:24;;;;;;;19.27;9.10;;;5.00;99.90;;;;;;4893254;29;20252;-71
2020/12/18 02:48:53;;;;;;;16.00;8.37;;;5.10;99.90;;;;;;4885311;29;20358;-70
2020/12/18 02:51:30;;;;;;;19.60;9.17;;;5.10;99.90;;;;;;4873345;29;20236;-71
2020/12/18 02:54:17;;;;;;;22.63;9.43;;;5.10;99.90;;;;;;4890930;29;20635;-71
2020/12/18 02:57:14;;;;;;;19.87;8.90;;;5.10;99.90;;;;;;4860275;29;20218;-70
2020/12/18 02:59:48;;;;;;;18.27;9.73;;;5.10;99.90;;;;;;4852735;29;20848;-71
2020/12/18 03:02:15;;;;;;;19.87;9.30;;;5.10;99.90;;;;;;4868167;29;20216;-70
2020/12/18 03:04:44;;;;;;;20.37;9.67;;;5.10;99.90;;;;;;4874661;29;20632;-71
2020/12/18 03:07:32;;;;;;;18.83;9.20;;;5.10;99.90;;;;;;4875430;29;20356;-70
2020/12/18 03:09:59;;;;;;;15.10;8.17;;;5.20;99.90;;;;;;4890486;29;20223;-71
2020/12/18 03:12:27;;;;;;;19.93;8.53;;;5.20;99.90;;;;;;4913719;29;20344;-71
2020/12/18 03:14:53;;;;;;;15.90;7.80;;;5.20;99.90;;;;;;4900932;29;20700;-70
2020/12/18 03:17:46;;;;;;;18.73;9.47;;;5.20;99.90;;;;;;4869569;29;20225;-71
2020/12/18 03:20:13;;;;;;;22.97;9.47;;;5.20;99.90;;;;;;4891268;29;20665;-71
2020/12/18 03:22:55;;;;;;;17.00;8.70;;;5.20;99.90;;;;;;4898575;29;20206;-71
2020/12/18 03:25:57;;;;;;;17.13;8.77;;;5.20;99.90;;;;;;4903466;29;20243;-70
2020/12/18 03:28:34;;;;;;;17.83;8.97;;;5.20;99.90;;;;;;4898070;29;20678;-70
2020/12/18 03:31:01;;;;;;;18.67;9.10;;;5.20;99.90;;;;;;4884126;29;20231;-70
2020/12/18 03:33:29;;;;;;;18.13;9.00;;;5.20;99.90;;;;;;4902604;29;20738;-70
2020/12/18 03:36:05;;;;;;;22.63;10.40;;;5.20;99.90;;;;;;4935974;29;20741;-70
2020/12/18 03:38:32;;;;;;;18.20;9.63;;;5.20;99.90;;;;;;4922053;29;20208;-70
2020/12/18 03:40:59;;;;;;;19.07;9.63;;;5.30;99.90;;;;;;4928995;29;20203;-70
2020/12/18 03:43:28;;;;;;;19.83;9.47;;;5.30;99.90;;;;;;4921542;29;20578;-71
2020/12/18 03:45:55;;;;;;;22.17;9.83;;;5.30;99.90;;;;;;4934074;29;20262;-70
2020/12/18 03:48:37;;;;;;;23.90;10.37;;;5.30;99.90;;;;;;4912326;29;20329;-70
2020/12/18 03:51:22;;;;;;;18.00;9.17;;;5.30;99.90;;;;;;4923988;29;20213;-70
2020/12/18 03:53:50;;;;;;;22.00;10.13;;;5.30;99.90;;;;;;4932201;29;20650;-71
2020/12/18 03:56:26;;;;;;;21.23;10.47;;;5.30;99.90;;;;;;4932116;29;20226;-70
2020/12/18 03:59:19;;;;;;;23.93;10.53;;;5.30;99.90;;;;;;4942468;28;20211;-70
2020/12/18 04:02:02;;;;;;;19.93;10.23;;;5.30;99.90;;;;;;4969487;28;20221;-70
2020/12/18 04:04:30;;;;;;;24.13;11.80;;;5.30;99.90;;;;;;4943183;29;20211;-70
2020/12/18 04:07:01;;;;;;;21.37;10.30;;;5.30;99.90;;;;;;4951368;29;20300;-70
2020/12/18 04:09:28;;;;;;;22.63;11.03;;;5.30;99.90;;;;;;4939856;29;20306;-70
2020/12/18 04:12:10;;;;;;;21.43;10.33;;;5.20;99.90;;;;;;4935382;29;20284;-70
2020/12/18 04:14:46;;;;;;;20.03;9.37;;;5.20;99.90;;;;;;4929275;29;20495;-70
2020/12/18 04:17:20;;;;;;;20.00;9.23;;;5.30;99.90;;;;;;4911986;29;20219;-70
2020/12/18 04:19:52;;;;;;;19.43;9.13;;;5.30;99.90;;;;;;4924856;29;20203;-70
2020/12/18 04:22:19;;;;;;;20.63;9.50;;;5.20;99.90;;;;;;4931942;29;20222;-71
2020/12/18 04:25:00;;;;;;;17.10;9.10;;;5.20;99.90;;;;;;4928138;29;20262;-70
2020/12/18 04:27:32;;;;;;;16.90;8.33;;;5.20;99.90;;;;;;4925167;29;20218;-70
2020/12/18 04:30:00;;;;;;;18.30;9.17;;;5.10;99.90;;;;;;4921540;29;20211;-70
2020/12/18 04:32:31;;;;;;;20.13;9.87;;;5.10;99.90;;;;;;4960685;28;20249;-70
2020/12/18 04:35:00;;;;;;;18.13;9.10;;;5.10;99.90;;;;;;4940880;29;20306;-70
2020/12/18 04:37:51;;;;;;;19.43;9.27;;;5.00;99.90;;;;;;4968246;28;20568;-70
2020/12/18 04:40:34;;;;;;;19.70;8.80;;;5.00;99.90;;;;;;4952110;28;20201;-70
2020/12/18 04:43:08;;;;;;;20.83;9.67;;;5.00;99.90;;;;;;4971327;28;20298;-70
2020/12/18 04:45:37;;;;;;;21.77;10.40;;;5.00;99.90;;;;;;4999384;28;20267;-71
2020/12/18 04:48:13;;;;;;;21.73;9.90;;;5.00;99.90;;;;;;5002387;28;20558;-70
2020/12/18 04:50:45;;;;;;;20.33;10.03;;;5.00;99.90;;;;;;5012111;28;20234;-70
2020/12/18 04:53:26;;;;;;;22.40;10.70;;;5.00;99.90;;;;;;5017643;28;20655;-71
2020/12/18 04:56:23;;;;;;;23.27;10.87;;;4.90;99.90;;;;;;4980163;28;20289;-70
2020/12/18 04:58:56;;;;;;;20.37;10.03;;;4.90;99.90;;;;;;4958892;28;20289;-70
2020/12/18 05:01:34;;;;;;;20.10;10.73;;;4.90;99.90;;;;;;4968191;28;20201;-70
2020/12/18 05:04:07;;;;;;;18.13;10.13;;;4.90;99.90;;;;;;4947301;28;20216;-71
2020/12/18 05:06:39;;;;;;;20.50;10.43;;;4.90;99.90;;;;;;4969808;28;20267;-71
2020/12/18 05:09:07;;;;;;;25.10;11.67;;;4.90;99.90;;;;;;4933575;29;20197;-71
2020/12/18 05:11:34;;;;;;;22.47;10.80;;;4.90;99.90;;;;;;4986203;28;20292;-70
2020/12/18 05:14:06;;;;;;;24.43;11.80;;;4.90;99.90;;;;;;5001335;28;20204;-71
2020/12/18 05:16:47;;;;;;;27.57;12.20;;;4.90;99.90;;;;;;4980542;28;20228;-70
2020/12/18 05:19:35;;;;;;;22.93;11.40;;;4.90;99.90;;;;;;4991089;28;20215;-70
2020/12/18 05:22:24;;;;;;;29.17;14.00;;;4.90;99.90;;;;;;4990478;28;20287;-70
2020/12/18 05:25:17;;;;;;;27.60;13.37;;;4.90;99.90;;;;;;4985461;28;20255;-70
2020/12/18 05:27:44;;;;;;;29.90;12.93;;;4.90;99.90;;;;;;4996314;28;20334;-70
2020/12/18 05:30:13;;;;;;;23.60;11.53;;;4.90;99.90;;;;;;5010194;28;20207;-70
2020/12/18 05:33:03;;;;;;;25.17;10.80;;;4.90;99.90;;;;;;4960669;28;20240;-71
2020/12/18 05:35:44;;;;;;;28.37;11.40;;;4.90;99.90;;;;;;4945946;29;20204;-70
2020/12/18 05:38:16;;;;;;;27.80;11.70;;;5.00;99.90;;;;;;4963086;28;20201;-71
2020/12/18 05:40:59;;;;;;;36.63;11.27;;;5.00;99.90;;;;;;4958685;28;20308;-71
2020/12/18 05:43:36;;;;;;;41.07;12.20;;;5.00;99.90;;;;;;4932903;28;20276;-71
2020/12/18 05:46:21;;;;;;;41.27;11.67;;;5.10;99.90;;;;;;4929446;29;20244;-71
2020/12/18 05:49:08;;;;;;;39.10;13.10;;;5.10;99.90;;;;;;4930224;29;20217;-71
2020/12/18 05:51:42;;;;;;;31.17;11.77;;;5.10;99.90;;;;;;4965357;28;20600;-71
2020/12/18 05:54:14;;;;;;;30.93;12.43;;;5.20;99.90;;;;;;4952337;28;20958;-70
2020/12/18 05:56:51;;;;;;;26.13;11.57;;;5.10;99.90;;;;;;4967858;28;20236;-71
2020/12/18 05:59:20;;;;;;;26.93;11.10;;;5.20;99.90;;;;;;4947211;29;20205;-71
2020/12/18 06:01:54;;;;;;;35.27;12.63;;;5.20;99.90;;;;;;4914321;29;20211;-70
2020/12/18 06:04:33;;;;;;;29.37;11.57;;;5.20;99.90;;;;;;4923674;29;20211;-70
2020/12/18 06:07:06;;;;;;;32.33;11.33;;;5.20;99.90;;;;;;4948948;28;20247;-71
2020/12/18 06:09:51;;;;;;;42.97;12.70;;;5.20;99.90;;;;;;4963408;28;20223;-71
2020/12/18 06:12:24;;;;;;;55.73;14.73;;;5.20;99.90;;;;;;4995276;28;20465;-71
2020/12/18 06:14:51;;;;;;;70.87;18.67;;;5.20;99.90;;;;;;4993342;28;20240;-70
2020/12/18 06:17:28;;;;;;;74.13;19.03;;;5.20;99.90;;;;;;4968898;28;20292;-71
2020/12/18 06:19:59;;;;;;;59.00;19.87;;;5.20;99.90;;;;;;4948433;29;21156;-71
2020/12/18 06:22:34;;;;;;;56.07;16.57;;;5.20;99.90;;;;;;4937611;29;20586;-70
2020/12/18 06:25:24;;;;;;;43.60;16.03;;;5.20;99.90;;;;;;4961727;28;20303;-71
2020/12/18 06:28:09;;;;;;;39.13;13.87;;;5.20;99.90;;;;;;4937450;29;20761;-70
2020/12/18 06:31:20;;;;;;;36.57;14.10;;;5.20;99.90;;;;;;4950317;28;20200;-70
2020/12/18 06:34:26;;;;;;;36.00;13.70;;;5.10;99.90;;;;;;4928260;29;20218;-70
2020/12/18 06:37:29;;;;;;;41.30;14.80;;;5.10;99.90;;;;;;4874514;29;20544;-71
2020/12/18 06:40:28;;;;;;;43.33;16.30;;;5.10;99.90;;;;;;4882698;29;20671;-70
2020/12/18 06:43:14;;;;;;;46.90;17.77;;;5.10;99.90;;;;;;4890696;29;20211;-70
2020/12/18 06:46:08;;;;;;;46.23;18.07;;;5.00;99.90;;;;;;4885079;29;20219;-70
2020/12/18 06:48:54;;;;;;;51.13;16.80;;;5.00;99.90;;;;;;4897378;29;20263;-71
2020/12/18 06:51:54;;;;;;;37.30;14.70;;;5.00;99.90;;;;;;4863089;29;20217;-71
2020/12/18 06:54:34;;;;;;;31.83;12.97;;;5.00;99.90;;;;;;4861745;29;20216;-70
2020/12/18 06:57:30;;;;;;;41.63;14.53;;;5.00;99.90;;;;;;4895837;29;20258;-70
2020/12/18 07:00:32;;;;;;;41.90;16.77;;;5.00;99.90;;;;;;4889181;29;20309;-70
2020/12/18 07:03:09;;;;;;;37.67;15.63;;;5.00;99.90;;;;;;4895543;29;20226;-70
2020/12/18 07:06:02;;;;;;;33.53;13.73;;;5.00;99.90;;;;;;4970133;28;20693;-70
2020/12/18 07:08:37;;;;;;;41.10;16.30;;;5.00;99.90;;;;;;5010258;28;20206;-70
2020/12/18 07:11:11;;;;;;;36.43;14.47;;;5.00;99.90;;;;;;5007604;28;20199;-70
2020/12/18 07:13:40;;;;;;;41.20;15.87;;;5.00;99.90;;;;;;5011225;28;20609;-70
2020/12/18 07:16:14;;;;;;;39.73;15.83;;;5.00;99.90;;;;;;5019094;28;20226;-71
2020/12/18 07:18:56;;;;;;;37.03;14.57;;;5.00;99.90;;;;;;5029183;28;20665;-71
2020/12/18 07:21:27;;;;;;;34.23;14.17;;;5.00;99.90;;;;;;5029879;28;20811;-71
2020/12/18 07:23:56;;;;;;;37.43;14.03;;;5.00;99.90;;;;;;5029668;28;20545;-71
2020/12/18 07:26:22;;;;;;;36.60;13.83;;;5.10;99.90;;;;;;5029262;28;20253;-70
2020/12/18 07:28:56;;;;;;;42.03;16.53;;;5.10;99.90;;;;;;5026172;28;20220;-71
2020/12/18 07:31:27;;;;;;;35.90;14.50;;;5.10;99.90;;;;;;5042776;28;20198;-71
2020/12/18 07:34:00;;;;;;;28.80;12.80;;;5.10;99.90;;;;;;5040987;28;20301;-71
2020/12/18 07:36:32;;;;;;;32.60;14.60;;;5.10;99.90;;;;;;5050991;28;20233;-71
2020/12/18 07:39:13;;;;;;;42.93;15.53;;;5.20;99.90;;;;;;5031714;28;20222;-70
2020/12/18 07:41:43;;;;;;;44.13;16.63;;;5.20;99.90;;;;;;5008422;28;20299;-71
2020/12/18 07:44:15;;;;;;;37.63;15.43;;;5.10;99.90;;;;;;5007300;28;20724;-71
2020/12/18 07:46:46;;;;;;;61.10;17.63;;;5.10;99.90;;;;;;5007986;28;20256;-70
2020/12/18 07:49:13;;;;;;;49.07;16.10;;;5.10;99.90;;;;;;5046370;28;20213;-70
2020/12/18 07:51:43;;;;;;;49.27;15.90;;;5.20;99.90;;;;;;5048788;28;20202;-71
2020/12/18 07:54:16;;;;;;;40.77;14.63;;;5.20;99.90;;;;;;5047471;28;20328;-71
2020/12/18 07:56:43;;;;;;;33.20;13.90;;;5.20;99.90;;;;;;5048097;28;20259;-71
2020/12/18 07:59:12;;;;;;;33.37;13.57;;;5.30;99.90;;;;;;5011650;28;20202;-71
2020/12/18 08:01:39;;;;;;;41.73;15.60;;;5.30;99.90;;;;;;5028956;28;20251;-71
2020/12/18 08:04:11;;;;;;;37.80;14.73;;;5.40;99.90;;;;;;5042460;28;20266;-72
2020/12/18 08:06:41;;;;;;;43.57;15.33;;;5.30;99.90;;;;;;5037409;28;20233;-70
2020/12/18 08:09:14;;;;;;;42.67;17.57;;;5.40;99.90;;;;;;5035198;28;20580;-70
2020/12/18 08:11:52;;;;;;;41.57;16.27;;;5.40;99.90;;;;;;4984439;28;20219;-70
2020/12/18 08:14:32;;;;;;;55.40;26.77;;;5.40;99.90;;;;;;4939612;28;20847;-71
2020/12/18 08:17:02;;;;;;;43.00;19.30;;;5.50;99.90;;;;;;4924267;29;20259;-70
2020/12/18 08:19:31;;;;;;;42.30;17.83;;;5.60;99.90;;;;;;4924056;29;20227;-70
2020/12/18 08:21:59;;;;;;;38.53;16.57;;;5.20;99.90;;;;;;4930246;29;20218;-70
2020/12/18 08:24:36;;;;;;;42.07;16.93;;;5.80;99.90;;;;;;4924262;29;20210;-70
2020/12/18 08:27:10;;;;;;;58.40;28.48;;;5.80;99.90;;;;;;4929185;29;20468;-70
2020/12/18 08:29:47;;;;;;;48.07;22.97;;;5.90;99.90;;;;;;4936102;28;20234;-70
2020/12/18 08:32:32;;;;;;;42.07;19.30;;;6.00;99.90;;;;;;4917015;29;20222;-70
2020/12/18 08:35:03;;;;;;;42.23;19.40;;;6.00;99.90;;;;;;4883222;29;20213;-70
2020/12/18 08:37:42;;;;;;;36.97;16.60;;;6.10;99.90;;;;;;4944515;28;20229;-71
2020/12/18 08:40:21;;;;;;;45.23;17.57;;;6.20;99.90;;;;;;4924491;29;20882;-71
2020/12/18 08:43:03;;;;;;;38.00;15.90;;;6.30;99.90;;;;;;4966818;28;20203;-71
2020/12/18 08:45:48;;;;;;;41.07;15.27;;;6.40;99.90;;;;;;4960399;28;20222;-70
2020/12/18 08:48:30;;;;;;;39.20;16.43;;;6.50;99.90;;;;;;4981097;28;20205;-71
2020/12/18 08:51:09;;;;;;;34.93;15.50;;;6.60;99.90;;;;;;4945370;29;20230;-70
2020/12/18 08:53:42;;;;;;;38.47;16.17;;;6.60;99.90;;;;;;4946551;29;20209;-71
2020/12/18 08:56:12;;;;;;;36.53;15.57;;;6.70;99.90;;;;;;4926842;29;20663;-71
2020/12/18 08:58:39;;;;;;;40.37;15.97;;;6.70;99.90;;;;;;4926491;28;20276;-71
2020/12/18 09:01:24;;;;;;;36.33;15.63;;;6.80;99.90;;;;;;4965116;28;20788;-71
2020/12/18 09:03:53;;;;;;;35.80;15.67;;;6.90;99.90;;;;;;4964578;28;20639;-71
2020/12/18 09:06:23;;;;;;;41.17;16.03;;;6.90;99.90;;;;;;4976671;28;20222;-71
2020/12/18 09:09:03;;;;;;;35.87;15.73;;;6.90;99.90;;;;;;4986098;28;20527;-70
2020/12/18 09:11:30;;;;;;;37.77;14.60;;;7.00;99.90;;;;;;4986907;28;20214;-70
2020/12/18 09:14:01;;;;;;;39.27;16.43;;;7.10;99.90;;;;;;4948704;28;20191;-69
2020/12/18 09:16:29;;;;;;;34.47;15.83;;;7.10;99.90;;;;;;4957401;28;20275;-70
2020/12/18 09:18:59;;;;;;;39.97;16.77;;;7.20;99.90;;;;;;4944216;28;20206;-70
2020/12/18 09:21:30;;;;;;;44.47;18.03;;;7.30;99.90;;;;;;4993707;28;20210;-70
2020/12/18 09:23:59;;;;;;;42.27;18.20;;;7.30;99.90;;;;;;5040761;28;20297;-70
2020/12/18 09:26:28;;;;;;;44.67;16.53;;;7.20;99.90;;;;;;5052115;28;20759;-70
2020/12/18 09:28:59;;;;;;;42.70;16.90;;;7.30;99.90;;;;;;5044499;28;20692;-69
2020/12/18 09:31:28;;;;;;;37.23;16.67;;;7.40;99.90;;;;;;5038829;28;20214;-70
2020/12/18 09:34:11;;;;;;;40.23;16.80;;;7.40;99.90;;;;;;5044722;28;20288;-70
2020/12/18 09:36:38;;;;;;;38.80;15.77;;;7.40;99.90;;;;;;5044737;28;20193;-70
2020/12/18 09:39:04;;;;;;;35.57;15.83;;;7.50;99.90;;;;;;5061798;28;20290;-70
2020/12/18 09:41:31;;;;;;;34.60;15.70;;;7.60;99.90;;;;;;5040321;28;20323;-70
2020/12/18 09:43:58;;;;;;;41.03;17.40;;;7.70;99.90;;;;;;5043076;28;20213;-71
2020/12/18 09:46:28;;;;;;;38.63;17.13;;;7.70;99.90;;;;;;5047843;28;20312;-70
2020/12/18 09:48:55;;;;;;;43.40;18.30;;;7.80;99.90;;;;;;5044327;28;20322;-71
2020/12/18 09:51:23;;;;;;;38.43;18.37;;;7.80;99.90;;;;;;5043624;28;20205;-71
2020/12/18 09:53:49;;;;;;;43.37;19.53;;;7.80;99.90;;;;;;5010289;28;20210;-70
2020/12/18 09:56:17;;;;;;;38.83;18.43;;;7.80;99.90;;;;;;5015287;28;20199;-70
2020/12/18 09:58:43;;;;;;;42.13;19.30;;;7.90;99.90;;;;;;5039711;28;20328;-70
2020/12/18 10:01:10;;;;;;;41.97;17.93;;;8.00;99.90;;;;;;5042856;28;20202;-70
2020/12/18 10:03:40;;;;;;;39.43;17.77;;;8.10;99.90;;;;;;5065044;28;20259;-70
2020/12/18 10:06:09;;;;;;;44.43;18.90;;;8.20;99.90;;;;;;5021568;28;20291;-71
2020/12/18 10:08:46;;;;;;;41.60;17.93;;;8.20;99.90;;;;;;5022815;28;20214;-70
2020/12/18 10:11:17;;;;;;;40.33;18.77;;;8.20;99.90;;;;;;5001440;28;20276;-70
2020/12/18 10:13:44;;;;;;;42.87;18.17;;;8.30;99.90;;;;;;5006572;28;20212;-70
2020/12/18 10:16:11;;;;;;;39.87;17.60;;;8.30;99.90;;;;;;5006574;28;20292;-70
2020/12/18 10:18:38;;;;;;;45.23;18.00;;;8.40;99.90;;;;;;5001321;28;20241;-71
2020/12/18 10:21:10;;;;;;;48.53;19.57;;;8.30;99.90;;;;;;5007446;28;20217;-70
2020/12/18 10:23:52;;;;;;;42.97;18.00;;;8.30;99.90;;;;;;5004998;28;20216;-70
2020/12/18 10:26:23;;;;;;;44.77;19.30;;;8.30;99.90;;;;;;4965539;28;20233;-71
2020/12/18 10:28:50;;;;;;;47.67;19.70;;;9.40;99.90;;;;;;4924936;29;20742;-71
2020/12/18 10:31:19;;;;;;;45.80;19.60;;;8.20;99.90;;;;;;4905129;29;20219;-71
2020/12/18 10:33:45;;;;;;;46.13;18.77;;;8.20;99.90;;;;;;4902806;29;20219;-71
2020/12/18 10:36:15;;;;;;;44.03;19.87;;;8.20;99.90;;;;;;4909031;29;20231;-72
2020/12/18 10:38:42;;;;;;;59.73;22.87;;;8.20;99.90;;;;;;4891466;29;20262;-70
2020/12/18 10:41:10;;;;;;;85.18;40.88;;;8.20;99.90;;;;;;4890619;29;20452;-71
2020/12/18 10:43:37;;;;;;;63.67;28.80;;;8.10;99.90;;;;;;4906450;28;20213;-71
2020/12/18 10:46:04;;;;;;;57.50;25.20;;;8.20;99.90;;;;;;4947220;28;20221;-70
2020/12/18 10:48:33;;;;;;;66.57;25.03;;;8.10;99.90;;;;;;4911021;29;20249;-71
2020/12/18 10:51:01;;;;;;;62.23;23.33;;;8.20;99.90;;;;;;4909513;29;20790;-71
2020/12/18 10:53:27;;;;;;;63.73;23.03;;;8.10;99.90;;;;;;4910762;29;20297;-70
2020/12/18 10:55:54;;;;;;;55.87;24.03;;;8.10;99.90;;;;;;4909615;29;20199;-70
2020/12/18 10:58:24;;;;;;;52.83;21.80;;;8.10;99.90;;;;;;4909662;29;20206;-70
2020/12/18 11:00:51;;;;;;;45.27;19.37;;;8.00;99.90;;;;;;4910363;29;20646;-70
2020/12/18 11:03:18;;;;;;;45.43;18.53;;;7.90;99.90;;;;;;4910094;29;20599;-70
2020/12/18 11:05:44;;;;;;;59.03;23.40;;;7.90;99.90;;;;;;4946714;29;20552;-71
2020/12/18 11:08:11;;;;;;;48.40;19.67;;;7.80;99.90;;;;;;4949076;29;20310;-70
2020/12/18 11:10:37;;;;;;;45.13;19.70;;;7.80;99.90;;;;;;4964534;28;20264;-69
2020/12/18 11:13:04;;;;;;;41.07;17.67;;;7.80;99.90;;;;;;4966494;28;20644;-69
2020/12/18 11:15:31;;;;;;;35.77;16.87;;;7.70;99.90;;;;;;4945497;28;20241;-69
2020/12/18 11:17:58;;;;;;;42.33;17.57;;;7.70;99.90;;;;;;4929192;29;20570;-69
2020/12/18 11:20:25;;;;;;;37.77;16.57;;;7.70;99.90;;;;;;4944060;29;20221;-69
2020/12/18 11:22:51;;;;;;;42.17;16.50;;;7.70;99.90;;;;;;4965562;28;20212;-69
2020/12/18 11:25:18;;;;;;;42.67;17.70;;;7.70;99.90;;;;;;4966361;28;20204;-69
2020/12/18 11:27:51;;;;;;;37.13;15.73;;;7.80;99.90;;;;;;4965330;28;20216;-70
2020/12/18 11:30:18;;;;;;;38.90;16.27;;;7.90;99.90;;;;;;4924398;29;20210;-70
2020/12/18 11:32:45;;;;;;;39.80;15.60;;;8.10;99.90;;;;;;4927524;29;20312;-70
2020/12/18 11:35:12;;;;;;;38.50;16.97;;;8.10;99.90;;;;;;4932975;29;20237;-69
2020/12/18 11:37:38;;;;;;;34.93;15.53;;;8.20;99.90;;;;;;4915956;29;20214;-69
2020/12/18 11:40:07;;;;;;;31.53;15.20;;;8.30;99.90;;;;;;4924303;29;20222;-69
2020/12/18 11:42:34;;;;;;;29.63;14.27;;;8.40;99.90;;;;;;4928538;29;20220;-69
2020/12/18 11:45:00;;;;;;;31.30;14.53;;;8.50;99.90;;;;;;4925110;29;20248;-71
2020/12/18 11:47:28;;;;;;;32.23;14.77;;;8.60;99.90;;;;;;4946911;28;20260;-69
2020/12/18 11:49:56;;;;;;;35.90;15.07;;;8.70;99.90;;;;;;4944657;28;20236;-69
2020/12/18 11:52:22;;;;;;;29.80;13.87;;;8.80;99.90;;;;;;4947125;28;20206;-69
2020/12/18 11:54:49;;;;;;;33.67;15.30;;;8.90;99.90;;;;;;4962843;28;20227;-70
2020/12/18 11:57:16;;;;;;;31.13;13.93;;;8.90;99.90;;;;;;4965391;28;20671;-69
2020/12/18 11:59:42;;;;;;;35.58;16.25;;;9.00;99.90;;;;;;4981809;28;20450;-69
2020/12/18 12:02:09;;;;;;;38.30;16.53;;;9.00;99.90;;;;;;5008365;28;20578;-69
2020/12/18 12:04:36;;;;;;;38.73;16.07;;;9.00;99.90;;;;;;4993181;28;20641;-70
2020/12/18 12:07:03;;;;;;;31.30;15.03;;;9.00;99.90;;;;;;4985861;28;20616;-70
2020/12/18 12:09:30;;;;;;;32.23;15.17;;;9.00;99.90;;;;;;4974820;28;20202;-70
2020/12/18 12:11:59;;;;;;;30.53;13.57;;;9.00;99.90;;;;;;4964344;28;20279;-70
2020/12/18 12:14:25;;;;;;;23.97;12.50;;;9.00;99.90;;;;;;4960505;28;20282;-70
2020/12/18 12:16:52;;;;;;;26.10;12.57;;;9.10;99.90;;;;;;4967433;28;20270;-70
2020/12/18 12:19:19;;;;;;;30.37;12.90;;;9.20;99.90;;;;;;4930988;28;20213;-70
2020/12/18 12:21:45;;;;;;;28.57;12.27;;;9.20;99.90;;;;;;4960946;28;20214;-70
2020/12/18 12:24:13;;;;;;;34.87;15.23;;;9.20;99.90;;;;;;4972351;28;20228;-70
2020/12/18 12:26:39;;;;;;;32.27;14.57;;;9.30;99.90;;;;;;4993710;28;20313;-70
2020/12/18 12:29:06;;;;;;;31.53;13.70;;;9.30;99.90;;;;;;5036244;28;20203;-70
2020/12/18 12:31:33;;;;;;;30.37;13.67;;;9.30;99.90;;;;;;5025390;28;20714;-70
2020/12/18 12:33:59;;;;;;;26.73;12.97;;;9.20;99.90;;;;;;5024791;28;20303;-70
2020/12/18 12:36:26;;;;;;;29.07;13.73;;;9.20;99.90;;;;;;5025991;28;20586;-70
2020/12/18 12:38:53;;;;;;;29.03;12.90;;;9.20;99.90;;;;;;4984277;28;20746;-71
2020/12/18 12:41:21;;;;;;;27.23;12.63;;;9.20;99.90;;;;;;5070201;28;20252;-70
2020/12/18 12:43:47;;;;;;;29.20;13.30;;;9.20;99.90;;;;;;5078339;28;20207;-70
2020/12/18 12:46:14;;;;;;;35.60;14.47;;;9.20;99.90;;;;;;5071799;28;20227;-71
2020/12/18 12:48:41;;;;;;;25.03;12.27;;;9.20;99.90;;;;;;5080425;28;20333;-70
2020/12/18 12:51:08;;;;;;;30.17;13.87;;;9.20;99.90;;;;;;5082882;28;20192;-70
2020/12/18 12:53:34;;;;;;;27.70;13.67;;;9.10;99.90;;;;;;5081888;28;20217;-70
2020/12/18 12:56:01;;;;;;;25.37;12.43;;;9.10;99.90;;;;;;5036205;28;20199;-70
2020/12/18 12:58:34;;;;;;;25.97;12.77;;;9.20;99.90;;;;;;5036736;28;20273;-70
2020/12/18 13:01:01;;;;;;;29.83;13.00;;;9.20;99.90;;;;;;4999737;28;20300;-70
2020/12/18 13:03:27;;;;;;;26.13;12.97;;;9.10;99.90;;;;;;5002810;28;20209;-70
2020/12/18 13:05:54;;;;;;;25.30;12.53;;;9.00;99.90;;;;;;4999062;28;20774;-70
2020/12/18 13:08:21;;;;;;;27.50;12.43;;;8.90;99.90;;;;;;4995411;28;20278;-70